Time;durP1;ratioP1;P1;durP2;ratioP2;P2;SDS_P1;SDS_P2;PMS_P1;PMS_P2;Temp;Humidity;BMP_temperature;BMP_pressure;BME280_temperature;BME280_humidity;BME280_pressure;Samples;Min_cycle;Max_cycle;Signal;HPM_P1;HPM_P2
2023/09/21 00:01:05;;;;;;;3.90;2.87;;;17.10;99.90;;;;;;5072580;28;20489;-68
2023/09/21 00:03:31;;;;;;;3.17;2.90;;;17.10;99.90;;;;;;5055831;28;20227;-69
2023/09/21 00:05:58;;;;;;;3.63;2.97;;;17.00;99.90;;;;;;5052610;28;20490;-69
2023/09/21 00:08:24;;;;;;;5.00;3.80;;;17.00;99.90;;;;;;5057679;28;20998;-68
2023/09/21 00:10:50;;;;;;;3.53;3.23;;;17.00;99.90;;;;;;5056797;28;20470;-69
2023/09/21 00:13:17;;;;;;;3.20;3.00;;;17.00;99.90;;;;;;5055565;28;20427;-69
2023/09/21 00:15:43;;;;;;;3.97;3.20;;;17.00;99.90;;;;;;5052422;28;20449;-69
2023/09/21 00:18:09;;;;;;;4.00;3.40;;;17.10;99.90;;;;;;5051854;28;20436;-69
2023/09/21 00:20:43;;;;;;;7.43;3.93;;;17.20;99.90;;;;;;5049543;28;20969;-69
2023/09/21 00:23:09;;;;;;;3.63;3.43;;;17.20;99.90;;;;;;5049508;28;20208;-69
2023/09/21 00:25:36;;;;;;;3.10;2.90;;;17.20;99.90;;;;;;5048936;28;20464;-68
2023/09/21 00:28:11;;;;;;;5.40;4.30;;;17.30;99.90;;;;;;5055009;28;20447;-68
2023/09/21 00:30:38;;;;;;;5.07;3.50;;;17.30;99.90;;;;;;5053470;28;20454;-69
2023/09/21 00:33:07;;;;;;;3.07;2.80;;;17.40;99.90;;;;;;5051076;28;20435;-69
2023/09/21 00:35:33;;;;;;;3.03;2.73;;;17.30;99.90;;;;;;5049973;28;20665;-69
2023/09/21 00:38:00;;;;;;;3.33;3.03;;;17.30;99.90;;;;;;5064892;28;20518;-69
2023/09/21 00:40:26;;;;;;;3.50;3.00;;;17.20;99.90;;;;;;5049403;28;20224;-69
2023/09/21 00:42:52;;;;;;;3.30;3.00;;;17.30;99.90;;;;;;5050815;28;20424;-69
2023/09/21 00:45:20;;;;;;;3.60;3.30;;;17.20;99.90;;;;;;5049871;28;20657;-69
2023/09/21 00:47:49;;;;;;;3.50;3.30;;;17.20;99.90;;;;;;5050175;28;20177;-69
2023/09/21 00:50:17;;;;;;;3.80;3.43;;;17.20;99.90;;;;;;5048934;28;20838;-69
2023/09/21 00:52:45;;;;;;;3.53;3.23;;;17.10;99.90;;;;;;5043657;28;20424;-69
2023/09/21 00:55:16;;;;;;;3.63;3.33;;;17.00;99.90;;;;;;5049074;28;20440;-69
2023/09/21 00:57:41;;;;;;;3.10;2.87;;;17.00;99.90;;;;;;5057260;28;20933;-69
2023/09/21 01:00:12;;;;;;;3.27;2.97;;;17.00;99.90;;;;;;5056556;28;20450;-69
2023/09/21 01:02:38;;;;;;;4.77;3.10;;;17.00;99.90;;;;;;5052504;28;20261;-68
2023/09/21 01:05:08;;;;;;;5.20;3.40;;;17.00;99.90;;;;;;5052191;28;20440;-69
2023/09/21 01:07:36;;;;;;;3.40;3.10;;;17.00;99.90;;;;;;5057703;28;20940;-69
2023/09/21 01:10:03;;;;;;;3.30;3.00;;;17.10;99.90;;;;;;5059313;28;20523;-69
2023/09/21 01:12:33;;;;;;;3.27;3.07;;;17.10;99.90;;;;;;5055445;28;20452;-68
2023/09/21 01:15:11;;;;;;;3.30;3.03;;;17.00;99.90;;;;;;5055620;28;20507;-70
2023/09/21 01:17:45;;;;;;;3.13;2.80;;;17.00;99.90;;;;;;5054078;28;20530;-68
2023/09/21 01:20:28;;;;;;;3.57;3.27;;;17.00;99.90;;;;;;5050462;28;20451;-69
2023/09/21 01:23:10;;;;;;;3.47;3.17;;;17.00;99.90;;;;;;5047581;28;20428;-69
2023/09/21 01:25:40;;;;;;;3.50;2.93;;;17.00;99.90;;;;;;5054759;28;20570;-69
2023/09/21 01:28:10;;;;;;;3.37;3.13;;;17.10;99.90;;;;;;5056660;28;20427;-68
2023/09/21 01:30:37;;;;;;;3.40;3.07;;;17.10;99.90;;;;;;5053198;28;20539;-69
2023/09/21 01:33:04;;;;;;;3.50;3.20;;;17.20;99.90;;;;;;5053265;28;20812;-69
2023/09/21 01:35:31;;;;;;;2.97;2.77;;;17.20;99.90;;;;;;5054991;28;20438;-69
2023/09/21 01:37:57;;;;;;;5.93;3.77;;;17.20;99.90;;;;;;5061546;28;20447;-68
2023/09/21 01:40:23;;;;;;;4.37;2.87;;;17.20;99.90;;;;;;5045724;28;20459;-69
2023/09/21 01:42:48;;;;;;;3.83;3.27;;;17.30;99.90;;;;;;5046003;28;20193;-68
2023/09/21 01:45:15;;;;;;;3.77;3.33;;;17.30;99.90;;;;;;5054090;28;20550;-68
2023/09/21 01:47:40;;;;;;;4.03;3.67;;;17.30;99.90;;;;;;5071654;28;20177;-69
2023/09/21 01:50:10;;;;;;;3.10;2.90;;;17.30;99.90;;;;;;5066462;28;20805;-69
2023/09/21 01:52:36;;;;;;;3.30;3.10;;;17.30;99.90;;;;;;5069680;28;20548;-68
2023/09/21 01:55:03;;;;;;;3.70;2.80;;;17.40;99.90;;;;;;5061645;28;20447;-68
2023/09/21 01:57:28;;;;;;;4.07;3.77;;;17.40;99.90;;;;;;5057391;28;20647;-69
2023/09/21 01:59:54;;;;;;;2.87;2.67;;;17.50;99.90;;;;;;5054534;28;20531;-69
2023/09/21 02:02:20;;;;;;;3.93;3.63;;;17.50;99.90;;;;;;5054086;28;20170;-68
2023/09/21 02:04:47;;;;;;;3.33;3.03;;;17.50;99.90;;;;;;5052764;28;20177;-69
2023/09/21 02:07:14;;;;;;;3.57;3.27;;;17.50;99.90;;;;;;5058600;28;20469;-69
2023/09/21 02:09:40;;;;;;;3.27;2.97;;;17.50;99.90;;;;;;5065356;28;20431;-69
2023/09/21 02:12:06;;;;;;;3.60;3.30;;;17.60;99.90;;;;;;5074427;28;20802;-69
2023/09/21 02:14:32;;;;;;;4.13;3.43;;;17.50;99.90;;;;;;5053152;28;20428;-69
2023/09/21 02:16:58;;;;;;;3.80;3.50;;;17.50;99.90;;;;;;5053398;28;20181;-69
2023/09/21 02:19:23;;;;;;;4.30;3.03;;;17.40;99.90;;;;;;5064337;28;20438;-68
2023/09/21 02:21:50;;;;;;;6.17;3.20;;;17.20;99.90;;;;;;5066009;28;20197;-68
2023/09/21 02:24:15;;;;;;;3.53;3.23;;;17.20;99.90;;;;;;5052908;28;20540;-68
2023/09/21 02:26:42;;;;;;;3.50;3.10;;;17.10;99.90;;;;;;5050148;28;20463;-69
2023/09/21 02:29:09;;;;;;;3.00;2.80;;;17.00;99.90;;;;;;5064386;28;20668;-69
2023/09/21 02:31:37;;;;;;;3.50;3.20;;;17.00;99.90;;;;;;5060470;28;20917;-68
2023/09/21 02:34:02;;;;;;;5.50;3.53;;;17.00;99.90;;;;;;5053849;28;20783;-68
2023/09/21 02:36:28;;;;;;;3.40;3.10;;;17.00;99.90;;;;;;5067338;28;20435;-69
2023/09/21 02:38:54;;;;;;;9.97;3.47;;;17.10;99.90;;;;;;5064726;28;20260;-69
2023/09/21 02:41:19;;;;;;;3.50;3.07;;;17.20;99.90;;;;;;5059888;28;20729;-69
2023/09/21 02:43:45;;;;;;;3.10;2.90;;;17.30;99.90;;;;;;5052734;28;20181;-69
2023/09/21 02:46:13;;;;;;;4.97;3.30;;;17.40;99.90;;;;;;5052995;28;20464;-68
2023/09/21 02:48:38;;;;;;;2.87;2.67;;;17.40;99.90;;;;;;5047884;28;20662;-67
2023/09/21 02:51:04;;;;;;;3.73;3.00;;;17.40;99.90;;;;;;5051518;28;20560;-68
2023/09/21 02:53:30;;;;;;;3.30;3.00;;;17.40;99.90;;;;;;5052298;28;20683;-68
2023/09/21 02:55:55;;;;;;;3.17;2.73;;;17.40;99.90;;;;;;5052555;28;20435;-68
2023/09/21 02:58:21;;;;;;;9.20;3.60;;;17.40;99.90;;;;;;5053122;28;20188;-67
2023/09/21 03:00:49;;;;;;;3.07;2.87;;;17.50;99.90;;;;;;5052114;28;20198;-68
2023/09/21 03:03:17;;;;;;;4.73;3.30;;;17.50;99.90;;;;;;5058337;28;20173;-68
2023/09/21 03:05:48;;;;;;;4.00;3.63;;;17.50;99.90;;;;;;5060051;28;20837;-68
2023/09/21 03:08:15;;;;;;;3.17;2.97;;;17.50;99.90;;;;;;5050615;28;20450;-68
2023/09/21 03:10:44;;;;;;;5.93;3.30;;;17.50;99.90;;;;;;5056031;28;20471;-68
2023/09/21 03:13:10;;;;;;;4.77;4.37;;;17.50;99.90;;;;;;5055773;28;20475;-68
2023/09/21 03:15:36;;;;;;;3.33;3.03;;;17.50;99.90;;;;;;5050116;28;20440;-68
2023/09/21 03:18:08;;;;;;;3.80;3.50;;;17.40;99.90;;;;;;5052199;28;20447;-68
2023/09/21 03:20:36;;;;;;;4.30;4.00;;;17.40;99.90;;;;;;5051537;28;20224;-68
2023/09/21 03:23:09;;;;;;;4.03;3.73;;;17.30;99.90;;;;;;5051869;28;20473;-68
2023/09/21 03:25:41;;;;;;;4.50;4.10;;;17.30;99.90;;;;;;5052137;28;20479;-68
2023/09/21 03:28:14;;;;;;;3.80;3.50;;;17.30;99.90;;;;;;5063459;28;20419;-68
2023/09/21 03:30:48;;;;;;;3.63;3.33;;;17.30;99.90;;;;;;5054662;28;20857;-68
2023/09/21 03:33:15;;;;;;;4.50;3.73;;;17.40;99.90;;;;;;5059503;28;20524;-67
2023/09/21 03:35:42;;;;;;;2.87;2.60;;;17.30;99.90;;;;;;5055173;28;20800;-68
2023/09/21 03:38:24;;;;;;;3.37;3.07;;;17.40;99.90;;;;;;5070453;28;20474;-68
2023/09/21 03:40:49;;;;;;;3.90;3.20;;;17.50;99.90;;;;;;5059414;28;20450;-68
2023/09/21 03:43:15;;;;;;;3.63;3.30;;;17.40;99.90;;;;;;5053379;28;20440;-68
2023/09/21 03:45:43;;;;;;;4.20;3.90;;;17.50;99.90;;;;;;5051828;28;20272;-67
2023/09/21 03:48:10;;;;;;;3.80;3.47;;;17.50;99.90;;;;;;5061243;28;20212;-68
2023/09/21 03:50:39;;;;;;;4.20;3.70;;;17.40;99.90;;;;;;5051315;28;20452;-68
2023/09/21 03:53:05;;;;;;;3.43;3.13;;;17.40;99.90;;;;;;5052208;28;20455;-68
2023/09/21 03:55:32;;;;;;;3.90;3.43;;;17.20;99.90;;;;;;5052688;28;20455;-68
2023/09/21 03:57:57;;;;;;;3.93;3.63;;;17.10;99.90;;;;;;5057684;28;20661;-68
2023/09/21 04:02:49;;;;;;;3.33;3.03;;;17.20;99.90;;;;;;5050047;28;20181;-68
2023/09/21 04:05:18;;;;;;;3.37;3.10;;;17.30;99.90;;;;;;5052265;28;20569;-68
2023/09/21 04:07:45;;;;;;;4.40;4.00;;;17.30;99.90;;;;;;5051802;28;20645;-68
2023/09/21 04:10:11;;;;;;;3.97;3.60;;;17.30;99.90;;;;;;5050603;28;20828;-67
2023/09/21 04:12:39;;;;;;;3.87;3.20;;;17.40;99.90;;;;;;5050907;28;20842;-68
2023/09/21 04:15:06;;;;;;;3.93;3.63;;;17.30;99.90;;;;;;5050984;28;20450;-68
2023/09/21 04:17:32;;;;;;;4.17;3.87;;;17.30;99.90;;;;;;5060095;28;20431;-67
2023/09/21 04:19:57;;;;;;;3.63;3.33;;;17.20;99.90;;;;;;5067372;28;20435;-68
2023/09/21 04:22:23;;;;;;;5.73;3.43;;;17.20;99.90;;;;;;5063627;28;20201;-68
2023/09/21 04:24:48;;;;;;;4.00;3.70;;;17.30;99.90;;;;;;5052670;28;20666;-68
2023/09/21 04:27:14;;;;;;;4.03;3.53;;;17.40;99.90;;;;;;5061204;28;20220;-67
2023/09/21 04:29:39;;;;;;;4.00;3.60;;;17.30;99.90;;;;;;5049722;28;20174;-68
2023/09/21 04:32:05;;;;;;;4.13;3.73;;;17.40;99.90;;;;;;5050882;28;20197;-68
2023/09/21 04:34:33;;;;;;;3.83;3.53;;;17.40;99.90;;;;;;5056639;28;20205;-68
2023/09/21 04:36:59;;;;;;;3.70;3.40;;;17.50;99.90;;;;;;5050796;28;20173;-68
2023/09/21 04:39:24;;;;;;;4.30;3.80;;;17.50;99.90;;;;;;5049082;28;21068;-68
2023/09/21 04:41:50;;;;;;;6.43;3.70;;;17.50;99.90;;;;;;5049900;28;20287;-67
2023/09/21 04:44:16;;;;;;;4.20;3.90;;;17.40;99.90;;;;;;5048295;28;20179;-67
2023/09/21 04:46:42;;;;;;;3.53;3.23;;;17.30;99.90;;;;;;5053975;28;20909;-68
2023/09/21 04:49:08;;;;;;;3.93;3.63;;;17.30;99.90;;;;;;5050861;28;20208;-67
2023/09/21 04:51:34;;;;;;;5.10;4.70;;;17.40;99.90;;;;;;5062770;28;20964;-68
2023/09/21 04:54:00;;;;;;;4.47;3.83;;;17.40;99.90;;;;;;5069205;28;20172;-69
2023/09/21 04:56:26;;;;;;;4.37;3.97;;;17.40;99.90;;;;;;5047052;28;20439;-68
2023/09/21 04:58:55;;;;;;;4.27;3.40;;;17.60;99.90;;;;;;5051673;28;20224;-68
2023/09/21 05:01:25;;;;;;;4.80;4.40;;;17.70;99.90;;;;;;5050461;28;20456;-68
2023/09/21 05:03:50;;;;;;;4.30;3.70;;;17.70;99.90;;;;;;5050688;28;20626;-68
2023/09/21 05:06:18;;;;;;;7.70;3.80;;;17.70;99.90;;;;;;5051585;28;20546;-68
2023/09/21 05:08:44;;;;;;;5.23;4.00;;;17.70;99.90;;;;;;5051669;28;20545;-68
2023/09/21 05:11:10;;;;;;;4.63;4.20;;;17.70;99.90;;;;;;5052270;28;20456;-68
2023/09/21 05:13:36;;;;;;;4.60;4.20;;;17.70;99.90;;;;;;5051369;28;20525;-68
2023/09/21 05:16:03;;;;;;;3.63;3.33;;;17.60;99.90;;;;;;5050673;28;20169;-68
2023/09/21 05:18:29;;;;;;;4.97;4.27;;;17.70;99.90;;;;;;5050646;28;20439;-68
2023/09/21 05:20:55;;;;;;;4.60;3.83;;;17.60;99.90;;;;;;5051423;28;20446;-68
2023/09/21 05:23:20;;;;;;;5.00;4.43;;;17.60;99.90;;;;;;5051230;28;20412;-68
2023/09/21 05:25:46;;;;;;;5.87;5.00;;;17.60;99.90;;;;;;5050154;28;20579;-68
2023/09/21 05:28:11;;;;;;;5.50;5.00;;;17.60;99.90;;;;;;5051412;28;20189;-68
2023/09/21 05:30:37;;;;;;;4.57;4.00;;;17.70;99.90;;;;;;5051427;28;20208;-68
2023/09/21 05:33:03;;;;;;;3.50;3.20;;;17.60;99.90;;;;;;5051294;28;20181;-68
2023/09/21 05:35:29;;;;;;;4.10;3.70;;;17.70;99.90;;;;;;5051416;28;20162;-68
2023/09/21 05:37:55;;;;;;;4.00;3.70;;;17.70;99.90;;;;;;5051486;28;20416;-68
2023/09/21 05:40:21;;;;;;;3.87;3.57;;;17.70;99.90;;;;;;5051224;28;20820;-68
2023/09/21 05:42:47;;;;;;;3.93;3.63;;;17.80;99.90;;;;;;5049099;28;20189;-68
2023/09/21 05:45:12;;;;;;;4.30;3.90;;;18.00;99.90;;;;;;5052364;28;20415;-68
2023/09/21 05:47:38;;;;;;;4.30;4.00;;;18.20;99.90;;;;;;5055160;28;20439;-68
2023/09/21 05:50:05;;;;;;;4.70;4.30;;;18.30;99.90;;;;;;5054855;28;20197;-68
2023/09/21 05:52:33;;;;;;;4.30;3.90;;;18.30;99.90;;;;;;5054950;28;20181;-68
2023/09/21 05:54:59;;;;;;;5.23;4.83;;;18.40;99.90;;;;;;5054928;28;20420;-68
2023/09/21 05:57:24;;;;;;;7.20;5.80;;;18.50;99.90;;;;;;5054879;28;20416;-68
2023/09/21 05:59:51;;;;;;;4.50;4.10;;;18.50;99.90;;;;;;5052910;28;20502;-68
2023/09/21 06:02:16;;;;;;;7.10;6.50;;;18.50;99.90;;;;;;5054096;28;20277;-68
2023/09/21 06:04:42;;;;;;;5.60;5.10;;;18.60;99.90;;;;;;5054403;28;20921;-68
2023/09/21 06:07:08;;;;;;;6.07;5.03;;;18.60;99.90;;;;;;5054659;28;20651;-68
2023/09/21 06:09:33;;;;;;;5.90;4.50;;;18.70;99.90;;;;;;5054759;28;20278;-68
2023/09/21 06:11:59;;;;;;;7.40;4.80;;;18.60;99.90;;;;;;5053224;28;20463;-68
2023/09/21 06:14:25;;;;;;;5.23;3.67;;;18.70;99.90;;;;;;5052960;28;20637;-68
2023/09/21 06:16:51;;;;;;;7.40;5.67;;;18.90;99.90;;;;;;5054528;28;20554;-67
2023/09/21 06:19:18;;;;;;;6.60;4.57;;;19.00;99.90;;;;;;5054495;28;20170;-68
2023/09/21 06:21:48;;;;;;;7.43;6.70;;;19.00;99.90;;;;;;5054437;28;20493;-68
2023/09/21 06:24:15;;;;;;;5.20;4.70;;;19.00;99.90;;;;;;5054235;28;20415;-68
2023/09/21 06:26:40;;;;;;;8.63;7.57;;;19.00;99.90;;;;;;5054251;28;20478;-68
2023/09/21 06:29:06;;;;;;;7.33;5.17;;;19.20;99.90;;;;;;5049182;28;20527;-68
2023/09/21 06:31:32;;;;;;;4.90;4.40;;;19.30;99.90;;;;;;5044355;28;20216;-68
2023/09/21 06:33:58;;;;;;;5.00;4.50;;;19.40;99.90;;;;;;5053921;28;20200;-68
2023/09/21 06:36:28;;;;;;;5.60;3.73;;;19.50;99.90;;;;;;5054097;28;20476;-68
2023/09/21 06:38:53;;;;;;;7.57;4.60;;;19.60;99.90;;;;;;5053706;28;20427;-68
2023/09/21 06:41:20;;;;;;;5.10;4.23;;;19.80;99.90;;;;;;5054088;28;20496;-68
2023/09/21 06:43:45;;;;;;;8.77;4.33;;;19.90;99.90;;;;;;5051791;28;20177;-67
2023/09/21 06:46:11;;;;;;;6.17;5.67;;;19.90;99.90;;;;;;5052999;28;20468;-68
2023/09/21 06:48:38;;;;;;;6.00;5.40;;;19.80;99.90;;;;;;5053832;28;20167;-68
2023/09/21 06:51:04;;;;;;;4.77;4.10;;;19.60;99.90;;;;;;5053843;28;20447;-67
2023/09/21 06:53:31;;;;;;;5.20;3.83;;;19.50;99.90;;;;;;5053777;28;20420;-67
2023/09/21 06:55:58;;;;;;;5.03;4.53;;;19.50;99.90;;;;;;5053672;28;20510;-67
2023/09/21 06:58:24;;;;;;;5.63;4.30;;;19.60;99.90;;;;;;5053848;28;20830;-67
2023/09/21 07:00:49;;;;;;;5.23;4.13;;;19.60;99.90;;;;;;5054149;28;20486;-68
2023/09/21 07:03:17;;;;;;;5.60;3.70;;;19.70;99.90;;;;;;5051528;28;20243;-68
2023/09/21 07:05:43;;;;;;;4.63;4.23;;;19.80;99.90;;;;;;5053395;28;20208;-68
2023/09/21 07:08:10;;;;;;;6.00;4.90;;;20.10;99.90;;;;;;5053681;28;20421;-68
2023/09/21 07:10:35;;;;;;;5.30;4.33;;;20.40;99.90;;;;;;5053430;28;20456;-68
2023/09/21 07:13:01;;;;;;;5.97;5.40;;;20.50;99.90;;;;;;5053465;28;20419;-68
2023/09/21 07:15:28;;;;;;;6.77;3.90;;;20.70;99.90;;;;;;5053605;28;20211;-68
2023/09/21 07:17:55;;;;;;;8.50;4.40;;;21.00;99.90;;;;;;5053474;28;20158;-68
2023/09/21 07:20:23;;;;;;;8.83;4.90;;;21.10;99.90;;;;;;5052655;28;20459;-68
2023/09/21 07:22:49;;;;;;;6.90;4.20;;;21.30;99.90;;;;;;5052983;28;20424;-68
2023/09/21 07:25:15;;;;;;;4.77;3.80;;;21.60;99.90;;;;;;5053250;28;20465;-69
2023/09/21 07:27:42;;;;;;;4.07;3.70;;;21.90;99.90;;;;;;5053314;28;20416;-68
2023/09/21 07:30:08;;;;;;;4.20;3.80;;;22.10;99.90;;;;;;5053204;28;20447;-68
2023/09/21 07:32:35;;;;;;;4.43;3.77;;;22.40;99.90;;;;;;5051744;28;20427;-68
2023/09/21 07:35:04;;;;;;;4.30;3.90;;;22.40;99.90;;;;;;5052090;28;20189;-68
2023/09/21 07:37:30;;;;;;;5.27;3.50;;;22.30;99.90;;;;;;5053015;28;20420;-68
2023/09/21 07:39:56;;;;;;;5.27;3.97;;;22.10;99.90;;;;;;5053084;28;20412;-68
2023/09/21 07:42:22;;;;;;;3.60;3.30;;;22.00;99.90;;;;;;5052403;28;20162;-68
2023/09/21 07:44:48;;;;;;;6.07;3.70;;;21.90;99.90;;;;;;5052710;28;20482;-68
2023/09/21 07:47:14;;;;;;;6.47;3.17;;;21.80;99.90;;;;;;5052763;28;20686;-68
2023/09/21 07:49:39;;;;;;;4.30;3.90;;;21.60;99.90;;;;;;5050995;28;20436;-68
2023/09/21 07:52:07;;;;;;;4.43;3.90;;;21.50;99.90;;;;;;5052513;28;20667;-68
2023/09/21 07:54:33;;;;;;;5.17;4.57;;;21.60;99.90;;;;;;5052669;28;20185;-68
2023/09/21 07:56:59;;;;;;;3.63;2.90;;;21.80;99.90;;;;;;5052663;28;20451;-68
2023/09/21 07:59:25;;;;;;;3.70;3.30;;;22.10;99.90;;;;;;5052478;28;20859;-68
2023/09/21 08:01:53;;;;;;;4.27;3.97;;;22.30;99.90;;;;;;5052418;28;20442;-68
2023/09/21 08:04:20;;;;;;;3.70;3.40;;;22.80;99.90;;;;;;5052197;28;20176;-68
2023/09/21 08:06:45;;;;;;;3.67;3.37;;;23.30;99.90;;;;;;5051527;28;20470;-68
2023/09/21 08:09:13;;;;;;;5.17;3.77;;;23.90;99.90;;;;;;5051469;28;20424;-68
2023/09/21 08:11:39;;;;;;;5.00;3.27;;;24.20;99.90;;;;;;5030963;28;20213;-68
2023/09/21 08:14:04;;;;;;;2.77;2.60;;;24.20;99.90;;;;;;5032321;28;20417;-68
2023/09/21 08:16:30;;;;;;;3.27;2.90;;;24.10;99.90;;;;;;5032353;28;20193;-68
2023/09/21 08:18:58;;;;;;;3.70;3.40;;;23.70;99.90;;;;;;5032326;28;20651;-68
2023/09/21 08:21:23;;;;;;;4.30;3.90;;;23.20;99.90;;;;;;5031019;28;20190;-68
2023/09/21 08:23:49;;;;;;;6.03;3.93;;;22.90;99.90;;;;;;5050418;28;20424;-68
2023/09/21 08:26:14;;;;;;;3.77;3.20;;;22.80;99.90;;;;;;5049490;28;20231;-68
2023/09/21 08:28:40;;;;;;;4.80;3.00;;;22.90;99.90;;;;;;5052093;28;20189;-69
2023/09/21 08:31:09;;;;;;;3.70;3.40;;;22.80;99.90;;;;;;5052503;28;20192;-68
2023/09/21 08:33:35;;;;;;;4.00;3.10;;;23.10;99.90;;;;;;5051877;28;20883;-68
2023/09/21 08:36:00;;;;;;;3.80;3.07;;;23.10;99.90;;;;;;5052011;28;20471;-68
2023/09/21 08:38:26;;;;;;;3.60;3.20;;;23.40;99.90;;;;;;5052090;28;20420;-68
2023/09/21 08:40:52;;;;;;;6.67;3.03;;;23.80;99.90;;;;;;5051426;28;20235;-69
2023/09/21 08:43:24;;;;;;;5.37;3.70;;;24.50;99.90;;;;;;5048538;28;20177;-69
2023/09/21 08:45:50;;;;;;;4.23;2.93;;;26.10;99.90;;;;;;5051152;28;20471;-69
2023/09/21 08:48:22;;;;;;;5.03;3.73;;;26.40;99.90;;;;;;5050522;28;20432;-69
2023/09/21 08:50:50;;;;;;;9.10;3.10;;;26.40;99.90;;;;;;5047600;28;20455;-68
2023/09/21 08:53:20;;;;;;;3.73;3.43;;;26.40;99.90;;;;;;5051055;28;20502;-68
2023/09/21 08:55:48;;;;;;;7.27;3.33;;;26.40;99.90;;;;;;5051253;28;20914;-68
2023/09/21 08:58:20;;;;;;;3.57;3.27;;;26.30;99.90;;;;;;5050356;28;20420;-68
2023/09/21 09:00:47;;;;;;;2.70;2.50;;;26.00;99.90;;;;;;5050267;28;20432;-68
2023/09/21 09:03:14;;;;;;;2.40;2.27;;;26.00;99.90;;;;;;5050046;28;21144;-68
2023/09/21 09:05:40;;;;;;;3.80;3.10;;;25.60;99.00;;;;;;5042581;28;21116;-68
2023/09/21 09:08:06;;;;;;;4.63;2.40;;;25.20;99.90;;;;;;5051365;28;20408;-68
2023/09/21 09:10:40;;;;;;;4.20;2.93;;;25.20;99.90;;;;;;5051416;28;20201;-68
2023/09/21 09:13:06;;;;;;;2.83;2.63;;;25.40;99.90;;;;;;5049821;28;20208;-68
2023/09/21 09:15:37;;;;;;;4.83;2.90;;;25.80;99.90;;;;;;5051546;28;20424;-68
2023/09/21 09:18:07;;;;;;;3.73;2.40;;;27.10;98.70;;;;;;5051660;28;20440;-68
2023/09/21 09:20:32;;;;;;;3.37;3.07;;;27.90;94.60;;;;;;5052229;28;20455;-69
2023/09/21 09:23:01;;;;;;;4.20;2.63;;;27.40;94.30;;;;;;5055240;28;20412;-68
2023/09/21 09:25:27;;;;;;;2.60;2.40;;;27.20;94.30;;;;;;5055477;28;20191;-68
2023/09/21 09:27:52;;;;;;;3.63;2.40;;;27.60;93.20;;;;;;5054515;28;20419;-68
2023/09/21 09:30:20;;;;;;;2.80;2.60;;;27.80;92.90;;;;;;5055447;28;20189;-68
2023/09/21 09:32:47;;;;;;;2.90;2.40;;;28.20;91.80;;;;;;5055159;28;20261;-69
2023/09/21 09:35:13;;;;;;;3.03;2.30;;;28.70;91.00;;;;;;5055381;28;20515;-68
2023/09/21 09:37:48;;;;;;;2.33;2.13;;;28.40;88.80;;;;;;5054203;28;20996;-68
2023/09/21 09:40:18;;;;;;;2.87;2.67;;;27.60;89.60;;;;;;5054983;28;20477;-68
2023/09/21 09:42:44;;;;;;;2.70;2.50;;;27.70;90.60;;;;;;5054816;28;20771;-69
2023/09/21 09:45:20;;;;;;;3.30;3.00;;;28.60;88.10;;;;;;5055225;28;20455;-69
2023/09/21 09:47:56;;;;;;;2.90;2.70;;;29.30;85.70;;;;;;5055149;28;20469;-68
2023/09/21 09:50:26;;;;;;;3.00;2.70;;;29.50;82.50;;;;;;5055043;28;20619;-68
2023/09/21 09:53:05;;;;;;;3.17;2.97;;;29.80;81.10;;;;;;5054019;28;20485;-68
2023/09/21 09:55:33;;;;;;;2.63;2.43;;;28.90;81.60;;;;;;5053807;28;20431;-68
2023/09/21 09:57:59;;;;;;;2.50;2.30;;;29.00;82.50;;;;;;5055003;28;20849;-68
2023/09/21 10:00:27;;;;;;;4.03;2.60;;;28.80;83.10;;;;;;5054691;28;20522;-68
2023/09/21 10:02:55;;;;;;;2.73;2.53;;;28.40;84.20;;;;;;5054638;28;20426;-69
2023/09/21 10:05:22;;;;;;;6.37;2.43;;;28.60;84.80;;;;;;5054755;28;20416;-68
2023/09/21 10:07:51;;;;;;;3.17;2.87;;;28.60;83.50;;;;;;5054113;28;20783;-70
2023/09/21 10:10:20;;;;;;;2.70;2.50;;;28.50;84.30;;;;;;5054338;28;20462;-70
2023/09/21 10:12:51;;;;;;;2.90;2.60;;;28.40;84.00;;;;;;5053299;28;20452;-69
2023/09/21 10:15:23;;;;;;;2.60;2.40;;;28.20;84.10;;;;;;5054414;28;20499;-68
2023/09/21 10:17:50;;;;;;;4.10;3.47;;;27.90;83.40;;;;;;5054607;28;20418;-69
2023/09/21 10:20:24;;;;;;;4.10;2.60;;;27.20;87.90;;;;;;5054513;28;20431;-69
2023/09/21 10:22:53;;;;;;;3.00;2.80;;;26.90;88.90;;;;;;5054307;28;20465;-67
2023/09/21 10:25:37;;;;;;;3.27;2.97;;;27.00;89.40;;;;;;5054260;28;20416;-68
2023/09/21 10:28:28;;;;;;;2.80;2.60;;;26.70;84.80;;;;;;5053002;28;20440;-69
2023/09/21 10:31:11;;;;;;;2.67;2.47;;;26.80;83.20;;;;;;5047634;28;20432;-67
2023/09/21 10:33:48;;;;;;;2.53;2.33;;;27.10;83.60;;;;;;5054001;28;20424;-68
2023/09/21 10:36:19;;;;;;;3.50;2.30;;;27.40;83.00;;;;;;5054307;28;20503;-69
2023/09/21 10:39:05;;;;;;;2.63;2.30;;;28.00;78.90;;;;;;5054460;28;20416;-68
2023/09/21 10:41:30;;;;;;;3.10;2.53;;;28.60;76.30;;;;;;5054280;28;20803;-69
2023/09/21 10:43:56;;;;;;;3.53;3.23;;;28.60;73.20;;;;;;5052847;28;20404;-69
2023/09/21 10:46:26;;;;;;;3.20;2.40;;;28.50;74.20;;;;;;5052219;28;20671;-68
2023/09/21 10:49:14;;;;;;;2.97;2.63;;;28.60;73.80;;;;;;5053190;28;20424;-68
2023/09/21 10:51:40;;;;;;;2.57;2.37;;;29.00;73.90;;;;;;5045845;28;20439;-69
2023/09/21 10:54:07;;;;;;;2.00;1.90;;;28.90;74.00;;;;;;5053602;28;20430;-69
2023/09/21 10:56:33;;;;;;;2.27;2.00;;;29.20;74.60;;;;;;5053778;28;20180;-69
2023/09/21 10:59:00;;;;;;;2.47;2.27;;;29.60;73.30;;;;;;5053781;28;20423;-70
2023/09/21 11:01:26;;;;;;;2.70;2.57;;;29.60;71.80;;;;;;5053731;28;20813;-68
2023/09/21 11:03:52;;;;;;;2.60;2.43;;;29.10;73.20;;;;;;5053612;28;20789;-69
2023/09/21 11:06:19;;;;;;;2.50;2.40;;;29.10;75.20;;;;;;5051422;28;20533;-69
2023/09/21 11:08:48;;;;;;;2.30;2.10;;;29.30;73.50;;;;;;5053507;28;20801;-70
2023/09/21 11:11:19;;;;;;;2.57;2.40;;;30.40;71.60;;;;;;5054010;28;20464;-69
2023/09/21 11:13:49;;;;;;;2.60;2.40;;;31.80;70.10;;;;;;5053291;28;20482;-69
2023/09/21 11:16:15;;;;;;;3.30;2.60;;;33.20;62.40;;;;;;5053847;28;20427;-69
2023/09/21 11:18:41;;;;;;;2.20;2.00;;;33.70;59.80;;;;;;5053550;28;20428;-68
2023/09/21 11:21:11;;;;;;;2.50;2.30;;;33.30;58.90;;;;;;5053365;28;20232;-68
2023/09/21 11:23:40;;;;;;;2.57;2.37;;;32.70;59.80;;;;;;5051681;28;20442;-68
2023/09/21 11:26:10;;;;;;;3.60;2.30;;;31.70;60.10;;;;;;5047446;28;20452;-68
2023/09/21 11:28:36;;;;;;;2.80;2.60;;;30.80;61.60;;;;;;5053030;28;20518;-68
2023/09/21 11:31:05;;;;;;;3.40;2.37;;;29.90;64.30;;;;;;5052739;28;20514;-67
2023/09/21 11:33:33;;;;;;;2.30;2.20;;;29.50;66.60;;;;;;5052777;28;20382;-68
2023/09/21 11:35:59;;;;;;;1.90;1.80;;;29.20;67.30;;;;;;5053010;28;20428;-68
2023/09/21 11:38:25;;;;;;;2.70;2.50;;;29.00;67.00;;;;;;5052968;28;20976;-67
2023/09/21 11:40:51;;;;;;;2.63;2.43;;;28.70;67.60;;;;;;5049037;28;20558;-67
2023/09/21 11:43:17;;;;;;;2.50;2.30;;;28.00;69.70;;;;;;5050876;28;20438;-67
2023/09/21 11:45:46;;;;;;;2.30;2.20;;;27.90;69.60;;;;;;5052721;28;20173;-67
2023/09/21 11:48:12;;;;;;;2.23;2.00;;;28.50;70.40;;;;;;5051086;28;20427;-67
2023/09/21 11:50:38;;;;;;;2.87;2.67;;;28.90;69.70;;;;;;5052885;28;20443;-67
2023/09/21 11:53:07;;;;;;;2.60;2.40;;;29.20;68.30;;;;;;5052210;28;20211;-67
2023/09/21 11:55:33;;;;;;;2.67;2.47;;;29.50;65.90;;;;;;5052559;28;20932;-67
2023/09/21 11:58:09;;;;;;;3.47;2.93;;;29.50;65.90;;;;;;5052600;28;20420;-67
2023/09/21 12:00:45;;;;;;;2.30;2.20;;;29.60;65.60;;;;;;5052573;28;20434;-67
2023/09/21 12:03:16;;;;;;;3.03;2.83;;;30.20;64.60;;;;;;5050489;28;20439;-67
2023/09/21 12:05:44;;;;;;;2.53;2.33;;;30.40;64.10;;;;;;5052029;28;20428;-68
2023/09/21 12:08:14;;;;;;;4.90;2.97;;;30.80;62.70;;;;;;5052437;28;20455;-67
2023/09/21 12:10:41;;;;;;;2.90;2.70;;;31.40;61.80;;;;;;5052156;28;20463;-67
2023/09/21 12:13:06;;;;;;;2.67;2.40;;;31.70;59.60;;;;;;5051364;28;20430;-68
2023/09/21 12:15:33;;;;;;;3.37;2.73;;;32.30;58.60;;;;;;5052429;28;20416;-67
2023/09/21 12:18:00;;;;;;;2.67;2.43;;;33.20;57.40;;;;;;5051977;28;20166;-68
2023/09/21 12:20:26;;;;;;;2.70;2.50;;;34.20;55.70;;;;;;5050709;28;20447;-67
2023/09/21 12:22:52;;;;;;;2.73;2.60;;;35.30;53.60;;;;;;5050585;28;20790;-68
2023/09/21 12:25:17;;;;;;;2.60;2.40;;;36.20;51.20;;;;;;5051592;28;20175;-67
2023/09/21 12:27:45;;;;;;;3.23;2.93;;;36.10;50.20;;;;;;5051975;28;20246;-67
2023/09/21 12:30:14;;;;;;;2.43;2.23;;;36.80;48.30;;;;;;5051377;28;20284;-68
2023/09/21 12:32:40;;;;;;;4.47;2.47;;;36.30;47.80;;;;;;5051685;28;20411;-67
2023/09/21 12:35:08;;;;;;;2.00;1.90;;;37.30;46.90;;;;;;5051846;28;20419;-68
2023/09/21 12:37:35;;;;;;;2.27;2.17;;;37.20;45.50;;;;;;5050145;28;20531;-67
2023/09/21 12:40:11;;;;;;;2.23;2.07;;;37.00;45.30;;;;;;5051707;28;20880;-69
2023/09/21 12:42:39;;;;;;;2.50;2.30;;;39.40;43.70;;;;;;5051637;28;20415;-68
2023/09/21 12:45:07;;;;;;;2.70;2.50;;;40.70;40.20;;;;;;5051700;28;20775;-68
2023/09/21 12:47:33;;;;;;;2.70;2.50;;;41.90;37.90;;;;;;5050810;28;20470;-67
2023/09/21 12:49:59;;;;;;;2.87;2.63;;;41.90;36.60;;;;;;5051679;28;20424;-67
2023/09/21 12:52:25;;;;;;;6.17;2.33;;;40.70;36.00;;;;;;5051756;28;20511;-67